Time;durP1;ratioP1;P1;durP2;ratioP2;P2;SDS_P1;SDS_P2;PMS_P1;PMS_P2;Temp;Humidity;BMP_temperature;BMP_pressure;BME280_temperature;BME280_humidity;BME280_pressure;Samples;Min_cycle;Max_cycle;Signal;HPM_P1;HPM_P2
2023/10/06 00:01:29;;;;;;;;;;;;;;;;;;5112006;28;19912;-73
2023/10/06 00:03:57;;;;;;;;;;;;;;;;;;5111333;28;19912;-73
2023/10/06 00:06:27;;;;;;;;;;;;;;;;;;5111886;28;19947;-73
2023/10/06 00:08:54;;;;;;;;;;;;;;;;;;5110199;28;19957;-73
2023/10/06 00:11:20;;;;;;;;;;;;;;;;;;5111065;28;19925;-72
2023/10/06 00:14:00;;;;;;;;;;;;;;;;;;5110050;28;19920;-73
2023/10/06 00:16:26;;;;;;;;;;;;;;;;;;5111391;28;19912;-72
2023/10/06 00:18:56;;;;;;;;;;;;;;;;;;5111189;28;20277;-72
2023/10/06 00:21:22;;;;;;;;;;;;;;;;;;5111235;28;19916;-73
2023/10/06 00:23:49;;;;;;;;;;;;;;;;;;5111278;28;19915;-73
2023/10/06 00:28:45;;;;;;;;;;;;;;;;;;5071689;28;20323;-73
2023/10/06 00:31:11;;;;;;;;;;;;;;;;;;5071171;28;19915;-73
2023/10/06 00:33:37;;;;;;;;;;;;;;;;;;5070833;28;19914;-73
2023/10/06 00:36:13;;;;;;;;;;;;;;;;;;5069865;28;19939;-72
2023/10/06 00:38:42;;;;;;;;;;;;;;;;;;5071303;28;19951;-72
2023/10/06 00:43:08;;;;;;;;;;;;;;;;;;5091701;27;19916;-74
2023/10/06 00:47:23;;;;;;;;;;;;;;;;;;5071179;28;19916;-74
2023/10/06 00:49:55;;;;;;;;;;;;;;;;;;5071167;28;19934;-73
2023/10/06 00:59:36;;;;;;;;;;;;;;;;;;5091550;27;19913;-73
2023/10/06 01:04:08;;;;;;;;;;;;;;;;;;5071428;28;19968;-72
2023/10/06 01:06:34;;;;;;;;;;;;;;;;;;5071382;28;20294;-72
2023/10/06 01:09:14;;;;;;;;;;;;;;;;;;5069465;28;19913;-72
2023/10/06 01:12:52;;;;;;;;;;;;;;;;;;5091846;28;19922;-73
2023/10/06 01:15:19;;;;;;;;;;;;;;;;;;5091075;28;19912;-73
2023/10/06 01:18:41;;;;;;;;;;;;;;;;;;5091907;27;19923;-73
2023/10/06 01:21:16;;;;;;;;;;;;;;;;;;5091670;28;20040;-73
2023/10/06 01:23:42;;;;;;;;;;;;;;;;;;5091677;28;19912;-72
2023/10/06 01:26:09;;;;;;;;;;;;;;;;;;5091344;28;19914;-72
2023/10/06 01:28:54;;;;;;;;;;;;;;;;;;5091471;27;20390;-73
2023/10/06 01:31:20;;;;;;;;;;;;;;;;;;5091405;28;19995;-72
2023/10/06 01:38:26;;;;;;;;;;;;;;;;;;5092251;27;19916;-73
2023/10/06 01:40:53;;;;;;;;;;;;;;;;;;5090160;28;19976;-73
2023/10/06 01:43:22;;;;;;;;;;;;;;;;;;5090984;28;19913;-73
2023/10/06 01:45:48;;;;;;;;;;;;;;;;;;5091510;28;19969;-73
2023/10/06 01:50:41;;;;;;;;;;;;;;;;;;5091232;28;19908;-73
2023/10/06 01:53:07;;;;;;;;;;;;;;;;;;5091253;28;19912;-72
2023/10/06 01:55:37;;;;;;;;;;;;;;;;;;5089825;28;19915;-73
2023/10/06 01:58:04;;;;;;;;;;;;;;;;;;5091029;28;19917;-73
2023/10/06 02:00:35;;;;;;;;;;;;;;;;;;5091435;28;20058;-73
2023/10/06 02:03:03;;;;;;;;;;;;;;;;;;5091018;28;19908;-72
2023/10/06 02:05:29;;;;;;;;;;;;;;;;;;5090681;28;19916;-72
2023/10/06 02:08:02;;;;;;;;;;;;;;;;;;5090866;28;19908;-73
2023/10/06 02:13:55;;;;;;;;;;;;;;;;;;5091503;27;20303;-71
2023/10/06 02:21:23;;;;;;;;;;;;;;;;;;5092009;27;19916;-73
2023/10/06 02:27:10;;;;;;;;;;;;;;;;;;5092067;27;19923;-73
2023/10/06 02:29:36;;;;;;;;;;;;;;;;;;5091976;28;19946;-72
2023/10/06 02:32:08;;;;;;;;;;;;;;;;;;5090983;28;19934;-72
2023/10/06 02:34:38;;;;;;;;;;;;;;;;;;5091524;28;19908;-72
2023/10/06 02:37:04;;;;;;;;;;;;;;;;;;5091389;28;19909;-73
2023/10/06 02:41:29;;;;;;;;;;;;;;;;;;5092273;27;19917;-72
2023/10/06 02:45:20;;;;;;;;;;;;;;;;;;5092143;28;19917;-71
2023/10/06 02:47:46;;;;;;;;;;;;;;;;;;5091006;28;19919;-72
2023/10/06 02:51:47;;;;;;;;;;;;;;;;;;5112374;27;19916;-72
2023/10/06 02:59:23;;;;;;;;;;;;;;;;;;5091943;27;19916;-72
2023/10/06 03:02:15;;;;;;;;;;;;;;;;;;5132162;27;19922;-72
2023/10/06 03:04:54;;;;;;;;;;;;;;;;;;5091724;27;19938;-72
2023/10/06 03:07:22;;;;;;;;;;;;;;;;;;5091248;28;20011;-71
2023/10/06 03:09:48;;;;;;;;;;;;;;;;;;5091351;28;20359;-71
2023/10/06 03:14:49;;;;;;;;;;;;;;;;;;5090887;28;19908;-73
2023/10/06 03:17:17;;;;;;;;;;;;;;;;;;5091170;28;19962;-72
2023/10/06 03:19:56;;;;;;;;;;;;;;;;;;5089860;28;19908;-73
2023/10/06 03:22:25;;;;;;;;;;;;;;;;;;5090904;28;19908;-73
2023/10/06 03:25:00;;;;;;;;;;;;;;;;;;5091054;28;19908;-73
2023/10/06 03:27:26;;;;;;;;;;;;;;;;;;5091096;28;19912;-72
2023/10/06 03:29:55;;;;;;;;;;;;;;;;;;5090545;28;19931;-72
2023/10/06 03:32:48;;;;;;;;;;;;;;;;;;5090905;28;19908;-73
2023/10/06 03:37:53;;;;;;;;;;;;;;;;;;5090820;28;19916;-73
2023/10/06 03:40:30;;;;;;;;;;;;;;;;;;5090675;28;19916;-73
2023/10/06 03:42:57;;;;;;;;;;;;;;;;;;5090397;28;19924;-73
2023/10/06 03:45:39;;;;;;;;;;;;;;;;;;5112204;27;19916;-72
2023/10/06 03:48:43;;;;;;;;;;;;;;;;;;5071635;28;19917;-71
2023/10/06 03:51:09;;;;;;;;;;;;;;;;;;5070799;28;19920;-72
2023/10/06 03:53:35;;;;;;;;;;;;;;;;;;5071138;28;19913;-71
2023/10/06 03:56:01;;;;;;;;;;;;;;;;;;5070731;28;19909;-71
2023/10/06 03:58:28;;;;;;;;;;;;;;;;;;5071322;28;19963;-74
2023/10/06 04:00:54;;;;;;;;;;;;;;;;;;5071088;28;20381;-72
2023/10/06 04:03:21;;;;;;;;;;;;;;;;;;5070632;28;20389;-71
2023/10/06 04:05:48;;;;;;;;;;;;;;;;;;5071024;28;19909;-71
2023/10/06 04:08:15;;;;;;;;;;;;;;;;;;5070832;28;19924;-71
2023/10/06 04:10:42;;;;;;;;;;;;;;;;;;5070601;28;19951;-71
2023/10/06 04:13:08;;;;;;;;;;;;;;;;;;5070763;28;19916;-71
2023/10/06 04:15:38;;;;;;;;;;;;;;;;;;5070739;28;19909;-71
2023/10/06 04:18:03;;;;;;;;;;;;;;;;;;5070506;28;19919;-71
2023/10/06 04:20:29;;;;;;;;;;;;;;;;;;5070678;28;19909;-72
2023/10/06 04:22:59;;;;;;;;;;;;;;;;;;5070545;28;19955;-71
2023/10/06 04:25:28;;;;;;;;;;;;;;;;;;5070084;28;19909;-71
2023/10/06 04:27:54;;;;;;;;;;;;;;;;;;5070417;28;19970;-71
2023/10/06 04:30:21;;;;;;;;;;;;;;;;;;5069089;28;20434;-72
2023/10/06 04:32:47;;;;;;;;;;;;;;;;;;5070000;28;19955;-71
2023/10/06 04:35:19;;;;;;;;;;;;;;;;;;5070281;28;19913;-72
2023/10/06 04:37:46;;;;;;;;;;;;;;;;;;5070382;28;19967;-72
2023/10/06 04:40:16;;;;;;;;;;;;;;;;;;5069845;28;19908;-72
2023/10/06 04:42:42;;;;;;;;;;;;;;;;;;5070168;28;20284;-72
2023/10/06 04:45:12;;;;;;;;;;;;;;;;;;5070592;28;19909;-72
2023/10/06 04:49:18;;;;;;;;;;;;;;;;;;5091912;27;20008;-72
2023/10/06 04:51:45;;;;;;;;;;;;;;;;;;5091375;28;19995;-73
2023/10/06 04:54:13;;;;;;;;;;;;;;;;;;5090878;28;19908;-72
2023/10/06 04:57:44;;;;;;;;;;;;;;;;;;5091959;27;20304;-72
2023/10/06 05:00:19;;;;;;;;;;;;;;;;;;5090962;28;19958;-72
2023/10/06 05:02:47;;;;;;;;;;;;;;;;;;5090131;28;19908;-71
2023/10/06 05:05:13;;;;;;;;;;;;;;;;;;5091329;28;19962;-72
2023/10/06 05:07:39;;;;;;;;;;;;;;;;;;5090830;28;19908;-72
2023/10/06 05:10:08;;;;;;;;;;;;;;;;;;5091369;28;19909;-72
2023/10/06 05:14:46;;;;;;;;;;;;;;;;;;5110710;27;19916;-71
2023/10/06 05:17:16;;;;;;;;;;;;;;;;;;5094562;28;19912;-73
2023/10/06 05:19:42;;;;;;;;;;;;;;;;;;5091659;28;19912;-71
2023/10/06 05:22:08;;;;;;;;;;;;;;;;;;5090579;28;19912;-71
2023/10/06 05:25:36;;;;;;;;;;;;;;;;;;5067800;28;19917;-71
2023/10/06 05:28:03;;;;;;;;;;;;;;;;;;5052217;28;19919;-74
2023/10/06 05:30:29;;;;;;;;;;;;;;;;;;5048997;28;19955;-74
2023/10/06 05:34:52;;;;;;;;;;;;;;;;;;5100800;27;19924;-72
2023/10/06 05:37:48;;;;;;;;;;;;;;;;;;5054433;28;19921;-74
2023/10/06 05:40:20;;;;;;;;;;;;;;;;;;5050242;28;19920;-73
2023/10/06 05:45:32;;;;;;;;;;;;;;;;;;5084373;27;19920;-71
2023/10/06 05:47:58;;;;;;;;;;;;;;;;;;5083591;28;19921;-71
2023/10/06 05:50:27;;;;;;;;;;;;;;;;;;5083942;28;20261;-72
2023/10/06 05:53:22;;;;;;;;;;;;;;;;;;5096145;27;19920;-73
2023/10/06 05:55:49;;;;;;;;;;;;;;;;;;5106844;28;20352;-78
2023/10/06 05:58:15;;;;;;;;;;;;;;;;;;5105467;28;19909;-71
2023/10/06 06:01:56;;;;;;;;;;;;;;;;;;5172265;27;20013;-74
2023/10/06 06:04:27;;;;;;;;;;;;;;;;;;5161389;27;20009;-72
2023/10/06 06:06:56;;;;;;;;;;;;;;;;;;5147959;27;19957;-73
2023/10/06 06:09:22;;;;;;;;;;;;;;;;;;5163528;27;19937;-71
2023/10/06 06:16:15;;;;;;;;;;;;;;;;;;5085375;27;19916;-72
2023/10/06 06:18:56;;;;;;;;;;;;;;;;;;5086530;27;19916;-71
2023/10/06 06:21:53;;;;;;;;;;;;;;;;;;5088040;27;19927;-72
2023/10/06 06:24:22;;;;;;;;;;;;;;;;;;5087248;28;20283;-72
2023/10/06 06:26:49;;;;;;;;;;;;;;;;;;5086118;28;19913;-73
2023/10/06 06:31:19;;;;;;;;;;;;;;;;;;5104285;27;20439;-70
2023/10/06 06:35:35;;;;;;;;;;;;;;;;;;5095450;27;19923;-72
2023/10/06 06:40:10;;;;;;;;;;;;;;;;;;5144920;27;20400;-71
2023/10/06 06:49:11;;;;;;;;;;;;;;;;;;5087301;27;20033;-74
2023/10/06 06:51:37;;;;;;;;;;;;;;;;;;5077102;28;20525;-76
2023/10/06 06:55:32;;;;;;;;;;;;;;;;;;5107739;27;19920;-72
2023/10/06 06:58:00;;;;;;;;;;;;;;;;;;5104302;28;19918;-76
2023/10/06 07:01:42;;;;;;;;;;;;;;;;;;5085559;28;19927;-71
2023/10/06 07:04:08;;;;;;;;;;;;;;;;;;5078176;28;19912;-72
2023/10/06 07:06:34;;;;;;;;;;;;;;;;;;5061279;28;19924;-77
2023/10/06 07:09:00;;;;;;;;;;;;;;;;;;5064520;28;19924;-76
2023/10/06 07:11:43;;;;;;;;;;;;;;;;;;5105894;27;19919;-76
2023/10/06 07:14:09;;;;;;;;;;;;;;;;;;5095741;28;19951;-79
2023/10/06 07:16:38;;;;;;;;;;;;;;;;;;5095070;28;19985;-73
2023/10/06 07:22:15;;;;;;;;;;;;;;;;;;5083259;27;19943;-76
2023/10/06 07:24:41;;;;;;;;;;;;;;;;;;5082337;28;20563;-75
2023/10/06 07:27:08;;;;;;;;;;;;;;;;;;5081712;28;19973;-75
2023/10/06 07:29:34;;;;;;;;;;;;;;;;;;5079558;28;19920;-76
2023/10/06 07:32:00;;;;;;;;;;;;;;;;;;5080894;28;19974;-79
2023/10/06 07:34:27;;;;;;;;;;;;;;;;;;5082044;28;20380;-76
2023/10/06 07:39:08;;;;;;;;;;;;;;;;;;5083202;27;19923;-73
2023/10/06 07:42:55;;;;;;;;;;;;;;;;;;5131174;27;19916;-77
2023/10/06 07:45:21;;;;;;;;;;;;;;;;;;5126360;28;19918;-74
2023/10/06 07:49:30;;;;;;;;;;;;;;;;;;5082361;27;20585;-75
2023/10/06 07:52:24;;;;;;;;;;;;;;;;;;5106351;27;19923;-76
2023/10/06 07:55:40;;;;;;;;;;;;;;;;;;5105178;27;19919;-73
2023/10/06 08:00:24;;;;;;;;;;;;;;;;;;5081437;27;19920;-71
2023/10/06 08:02:50;;;;;;;;;;;;;;;;;;5087814;28;19917;-71
2023/10/06 08:05:19;;;;;;;;;;;;;;;;;;5087517;28;19917;-71
2023/10/06 08:07:45;;;;;;;;;;;;;;;;;;5083212;28;19951;-71
2023/10/06 08:11:39;;;;;;;;;;;;;;;;;;5085893;27;19920;-73
2023/10/06 08:14:06;;;;;;;;;;;;;;;;;;5076712;28;19913;-72
2023/10/06 08:17:48;;;;;;;;;;;;;;;;;;5076771;27;19921;-71
2023/10/06 08:22:38;;;;;;;;;;;;;;;;;;5087260;27;20486;-74
2023/10/06 08:25:05;;;;;;;;;;;;;;;;;;5085872;28;19912;-73
2023/10/06 08:30:19;;;;;;;;;;;;;;;;;;5095665;27;19916;-74
2023/10/06 08:32:56;;;;;;;;;;;;;;;;;;5088719;27;19926;-73
2023/10/06 08:36:23;;;;;;;;;;;;;;;;;;5105619;27;19920;-71
2023/10/06 08:38:51;;;;;;;;;;;;;;;;;;5098866;28;19913;-70
2023/10/06 08:41:17;;;;;;;;;;;;;;;;;;5103560;28;19924;-71
2023/10/06 08:43:44;;;;;;;;;;;;;;;;;;5103149;28;20019;-69
2023/10/06 08:49:23;;;;;;;;;;;;;;;;;;5124341;27;19924;-69
2023/10/06 08:51:49;;;;;;;;;;;;;;;;;;5125141;27;19926;-67
2023/10/06 08:54:15;;;;;;;;;;;;;;;;;;5126397;28;20270;-70
2023/10/06 08:56:41;;;;;;;;;;;;;;;;;;5125486;27;19911;-72
2023/10/06 08:59:07;;;;;;;;;;;;;;;;;;5121280;28;19923;-70
2023/10/06 09:08:05;;;;;;;;;;;;;;;;;;5081837;27;19919;-69
2023/10/06 09:10:32;;;;;;;;;;;;;;;;;;5081834;28;20380;-72
2023/10/06 09:12:59;;;;;;;;;;;;;;;;;;5086292;28;19942;-70
2023/10/06 09:15:25;;;;;;;;;;;;;;;;;;5084184;28;19999;-71
2023/10/06 09:23:20;;;;;;;;;;;;;;;;;;5105966;27;19920;-70
2023/10/06 09:25:47;;;;;;;;;;;;;;;;;;5104465;28;19969;-70
2023/10/06 09:28:17;;;;;;;;;;;;;;;;;;5107872;28;19961;-70
2023/10/06 09:30:43;;;;;;;;;;;;;;;;;;5106131;28;20007;-70
2023/10/06 09:33:11;;;;;;;;;;;;;;;;;;5107637;28;20370;-68
2023/10/06 09:35:37;;;;;;;;;;;;;;;;;;5107114;28;20399;-70
2023/10/06 09:38:03;;;;;;;;;;;;;;;;;;5105305;28;19934;-71
2023/10/06 09:41:23;;;;;;;;;;;;;;;;;;5104941;27;19919;-69
2023/10/06 09:45:15;;;;;;;;;;;;;;;;;;5075960;27;19923;-70
2023/10/06 09:47:41;;;;;;;;;;;;;;;;;;5087810;28;20007;-68
2023/10/06 09:50:07;;;;;;;;;;;;;;;;;;5100338;28;20006;-68
2023/10/06 09:52:33;;;;;;;;;;;;;;;;;;5090862;28;19916;-71
2023/10/06 09:54:59;;;;;;;;;;;;;;;;;;5086716;28;20604;-72
2023/10/06 09:57:59;;;;;;;;;;;;;;;;;;5140083;27;19916;-70
2023/10/06 10:00:29;;;;;;;;;;;;;;;;;;5119855;28;20655;-70
2023/10/06 10:02:57;;;;;;;;;;;;;;;;;;5126662;28;20291;-70
2023/10/06 10:05:23;;;;;;;;;;;;;;;;;;5127269;28;20520;-73
2023/10/06 10:07:49;;;;;;;;;;;;;;;;;;5128928;28;19908;-73
2023/10/06 10:10:15;;;;;;;;;;;;;;;;;;5111073;28;19908;-73
2023/10/06 10:12:42;;;;;;;;;;;;;;;;;;5131007;28;19908;-73
2023/10/06 10:15:12;;;;;;;;;;;;;;;;;;5131283;28;19919;-74
2023/10/06 10:17:38;;;;;;;;;;;;;;;;;;5130734;28;19919;-74
2023/10/06 10:20:09;;;;;;;;;;;;;;;;;;5130075;28;19908;-74
2023/10/06 10:22:34;;;;;;;;;;;;;;;;;;5129968;28;20044;-73
2023/10/06 10:27:29;;;;;;;;;;;;;;;;;;5088729;27;19927;-72
2023/10/06 10:29:55;;;;;;;;;;;;;;;;;;5090181;28;19994;-72
2023/10/06 10:32:24;;;;;;;;;;;;;;;;;;5090325;28;20319;-73
2023/10/06 10:34:50;;;;;;;;;;;;;;;;;;5089386;28;19912;-72
2023/10/06 10:37:17;;;;;;;;;;;;;;;;;;5087040;28;19912;-72
2023/10/06 10:39:43;;;;;;;;;;;;;;;;;;5087783;28;20326;-72
2023/10/06 10:42:09;;;;;;;;;;;;;;;;;;5085974;28;19912;-72
2023/10/06 10:44:35;;;;;;;;;;;;;;;;;;5086725;28;20396;-73
2023/10/06 10:49:33;;;;;;;;;;;;;;;;;;5148427;27;20458;-72
2023/10/06 10:54:33;;;;;;;;;;;;;;;;;;5089412;27;19912;-72
2023/10/06 10:57:02;;;;;;;;;;;;;;;;;;5089476;28;19912;-72
2023/10/06 10:59:31;;;;;;;;;;;;;;;;;;5089796;28;19916;-73
2023/10/06 11:01:57;;;;;;;;;;;;;;;;;;5090292;28;19962;-73
2023/10/06 11:04:30;;;;;;;;;;;;;;;;;;5089410;28;20368;-72
2023/10/06 11:06:58;;;;;;;;;;;;;;;;;;5089864;28;19908;-73
2023/10/06 11:11:55;;;;;;;;;;;;;;;;;;5088754;28;19955;-72
2023/10/06 11:14:22;;;;;;;;;;;;;;;;;;5076495;28;20569;-72
2023/10/06 11:16:48;;;;;;;;;;;;;;;;;;5070010;28;19913;-71
2023/10/06 11:19:14;;;;;;;;;;;;;;;;;;5083561;28;19919;-70
2023/10/06 11:21:41;;;;;;;;;;;;;;;;;;5088369;28;20324;-69
2023/10/06 11:24:07;;;;;;;;;;;;;;;;;;5088757;28;19912;-69
2023/10/06 11:26:36;;;;;;;;;;;;;;;;;;5089595;28;19909;-69
2023/10/06 11:29:02;;;;;;;;;;;;;;;;;;5088817;28;19912;-70
2023/10/06 11:31:28;;;;;;;;;;;;;;;;;;5088437;28;20015;-70
2023/10/06 11:33:54;;;;;;;;;;;;;;;;;;5087226;28;19917;-70
2023/10/06 11:36:20;;;;;;;;;;;;;;;;;;5086149;28;19965;-69
2023/10/06 11:38:46;;;;;;;;;;;;;;;;;;5088217;28;19908;-70
2023/10/06 11:41:12;;;;;;;;;;;;;;;;;;5087931;28;20183;-70
2023/10/06 11:43:38;;;;;;;;;;;;;;;;;;5088645;28;20402;-70
2023/10/06 11:46:07;;;;;;;;;;;;;;;;;;5087256;28;20319;-69
2023/10/06 11:48:34;;;;;;;;;;;;;;;;;;5084955;28;19991;-70
2023/10/06 11:51:00;;;;;;;;;;;;;;;;;;5085319;28;19917;-70
2023/10/06 11:53:26;;;;;;;;;;;;;;;;;;5095735;28;20376;-70
2023/10/06 11:55:53;;;;;;;;;;;;;;;;;;5104910;28;19953;-70
2023/10/06 11:58:19;;;;;;;;;;;;;;;;;;5091829;28;20126;-69
2023/10/06 12:00:45;;;;;;;;;;;;;;;;;;5106424;28;19909;-70
2023/10/06 12:03:11;;;;;;;;;;;;;;;;;;5106735;28;20429;-76
2023/10/06 12:05:37;;;;;;;;;;;;;;;;;;5095729;28;19908;-75
2023/10/06 12:08:08;;;;;;;;;;;;;;;;;;5093698;28;19958;-75
2023/10/06 12:10:34;;;;;;;;;;;;;;;;;;5093815;28;20465;-75
2023/10/06 12:13:04;;;;;;;;;;;;;;;;;;5094216;28;19920;-75
2023/10/06 12:15:30;;;;;;;;;;;;;;;;;;5091916;28;20494;-75
2023/10/06 12:17:56;;;;;;;;;;;;;;;;;;5075982;28;19916;-75
2023/10/06 12:20:24;;;;;;;;;;;;;;;;;;5092849;28;19923;-76
2023/10/06 12:22:50;;;;;;;;;;;;;;;;;;5093925;28;19956;-75
2023/10/06 12:25:16;;;;;;;;;;;;;;;;;;5093563;28;20008;-75
2023/10/06 12:27:43;;;;;;;;;;;;;;;;;;5092879;28;19974;-75
2023/10/06 12:30:09;;;;;;;;;;;;;;;;;;5075903;28;19908;-75
2023/10/06 12:32:35;;;;;;;;;;;;;;;;;;5091170;28;19923;-75
2023/10/06 12:35:01;;;;;;;;;;;;;;;;;;5093460;28;19916;-75
2023/10/06 12:37:27;;;;;;;;;;;;;;;;;;5094027;28;19915;-76
2023/10/06 12:39:53;;;;;;;;;;;;;;;;;;5093387;28;19908;-76
2023/10/06 12:42:19;;;;;;;;;;;;;;;;;;5095217;28;20001;-76
2023/10/06 12:44:45;;;;;;;;;;;;;;;;;;5091076;28;19908;-75
2023/10/06 12:47:11;;;;;;;;;;;;;;;;;;5074375;28;20363;-75
2023/10/06 12:49:37;;;;;;;;;;;;;;;;;;5091874;28;20422;-75
2023/10/06 12:52:03;;;;;;;;;;;;;;;;;;5093930;28;19908;-75
2023/10/06 12:54:29;;;;;;;;;;;;;;;;;;5076697;28;19924;-75
2023/10/06 12:56:55;;;;;;;;;;;;;;;;;;5093812;28;19908;-75
2023/10/06 12:59:21;;;;;;;;;;;;;;;;;;5093816;28;19909;-76
2023/10/06 13:01:49;;;;;;;;;;;;;;;;;;5092595;28;20257;-76
2023/10/06 13:04:15;;;;;;;;;;;;;;;;;;5093622;28;20062;-76
2023/10/06 13:06:41;;;;;;;;;;;;;;;;;;5091741;28;19909;-76
2023/10/06 13:09:08;;;;;;;;;;;;;;;;;;5090915;28;20418;-76
2023/10/06 13:11:34;;;;;;;;;;;;;;;;;;5091954;28;19960;-76
2023/10/06 13:14:03;;;;;;;;;;;;;;;;;;5091906;28;20406;-76
2023/10/06 13:16:29;;;;;;;;;;;;;;;;;;5074220;28;19915;-76
2023/10/06 13:18:55;;;;;;;;;;;;;;;;;;5092956;28;20443;-76
2023/10/06 13:21:21;;;;;;;;;;;;;;;;;;5094134;28;19915;-76
2023/10/06 13:23:47;;;;;;;;;;;;;;;;;;5095424;28;19909;-76
2023/10/06 13:26:13;;;;;;;;;;;;;;;;;;5094749;28;19935;-76
2023/10/06 13:28:41;;;;;;;;;;;;;;;;;;5076990;28;19908;-76
2023/10/06 13:31:10;;;;;;;;;;;;;;;;;;5095141;28;19934;-76
2023/10/06 13:33:36;;;;;;;;;;;;;;;;;;5076422;28;20443;-76
2023/10/06 13:36:03;;;;;;;;;;;;;;;;;;5095060;28;20003;-76
2023/10/06 13:38:29;;;;;;;;;;;;;;;;;;5076708;28;19908;-75
2023/10/06 13:40:56;;;;;;;;;;;;;;;;;;5094457;28;19916;-76
2023/10/06 13:43:23;;;;;;;;;;;;;;;;;;5094949;28;19995;-77
2023/10/06 13:45:49;;;;;;;;;;;;;;;;;;5094891;28;19971;-77
2023/10/06 13:48:22;;;;;;;;;;;;;;;;;;5094343;28;20380;-76
2023/10/06 13:50:48;;;;;;;;;;;;;;;;;;5094953;28;19908;-76
2023/10/06 13:53:15;;;;;;;;;;;;;;;;;;5094294;28;20395;-76
2023/10/06 13:55:41;;;;;;;;;;;;;;;;;;5094344;28;19908;-76
2023/10/06 13:58:08;;;;;;;;;;;;;;;;;;5094516;28;19931;-75
2023/10/06 14:00:38;;;;;;;;;;;;;;;;;;5076434;28;19908;-75
2023/10/06 14:03:06;;;;;;;;;;;;;;;;;;5094136;28;20388;-75
2023/10/06 14:05:33;;;;;;;;;;;;;;;;;;5076360;28;19962;-75
2023/10/06 14:07:59;;;;;;;;;;;;;;;;;;5094206;28;19958;-75
2023/10/06 14:10:25;;;;;;;;;;;;;;;;;;5094488;28;20368;-76
2023/10/06 14:14:38;;;;;;;;;;;;;;;;;;5112397;27;19940;-75
2023/10/06 14:17:10;;;;;;;;;;;;;;;;;;5111398;28;19912;-75
2023/10/06 14:21:43;;;;;;;;;;;;;;;;;;5111857;27;19916;-75
2023/10/06 14:25:38;;;;;;;;;;;;;;;;;;5112483;27;19922;-75
2023/10/06 14:28:07;;;;;;;;;;;;;;;;;;5111769;28;20371;-75
2023/10/06 14:30:34;;;;;;;;;;;;;;;;;;5111393;28;20253;-76
2023/10/06 14:45:57;;;;;;;;;;;;;;;;;;5111435;27;19916;-75
2023/10/06 14:46:36;;;;;;;;;;;;;;;;;;5092212;28;19923;-75
2023/10/06 14:49:05;;;;;;;;;;;;;;;;;;5091338;28;20372;-75
2023/10/06 14:51:31;;;;;;;;;;;;;;;;;;5089726;28;20020;-75
2023/10/06 14:54:30;;;;;;;;;;;;;;;;;;5091460;27;20299;-75
2023/10/06 14:58:25;;;;;;;;;;;;;;;;;;5173545;27;19911;-75
2023/10/06 15:00:51;;;;;;;;;;;;;;;;;;5173586;27;19943;-74
2023/10/06 15:03:17;;;;;;;;;;;;;;;;;;5173754;27;19907;-74
2023/10/06 15:05:43;;;;;;;;;;;;;;;;;;5173151;27;20036;-74
2023/10/06 15:08:12;;;;;;;;;;;;;;;;;;5173782;27;19914;-74
2023/10/06 15:11:08;;;;;;;;;;;;;;;;;;5112517;27;19916;-75
2023/10/06 15:13:36;;;;;;;;;;;;;;;;;;5111832;28;19924;-75
2023/10/06 15:16:02;;;;;;;;;;;;;;;;;;5111601;28;20268;-75
2023/10/06 15:18:30;;;;;;;;;;;;;;;;;;5111343;28;20400;-75
2023/10/06 15:24:23;;;;;;;;;;;;;;;;;;5091597;27;19920;-75
2023/10/06 15:26:49;;;;;;;;;;;;;;;;;;5090835;28;20003;-75
2023/10/06 15:30:56;;;;;;;;;;;;;;;;;;5132112;27;20323;-75
2023/10/06 15:33:22;;;;;;;;;;;;;;;;;;5132047;28;19962;-75
2023/10/06 15:35:48;;;;;;;;;;;;;;;;;;5132174;27;19912;-75
2023/10/06 15:38:19;;;;;;;;;;;;;;;;;;5132097;28;20019;-75
2023/10/06 15:44:05;;;;;;;;;;;;;;;;;;5092093;28;20265;-75
2023/10/06 15:46:34;;;;;;;;;;;;;;;;;;5090914;28;20011;-75
2023/10/06 15:52:53;;;;;;;;;;;;;;;;;;5072045;28;19917;-76
2023/10/06 15:55:19;;;;;;;;;;;;;;;;;;5070652;28;20007;-76
2023/10/06 15:57:45;;;;;;;;;;;;;;;;;;5070931;28;19947;-76
2023/10/06 16:00:13;;;;;;;;;;;;;;;;;;5071068;28;19915;-76
2023/10/06 16:04:14;;;;;;;;;;;;;;;;;;5111707;27;20374;-74
2023/10/06 16:07:15;;;;;;;;;;;;;;;;;;5091349;28;19923;-74
2023/10/06 16:10:15;;;;;;;;;;;;;;;;;;5091230;27;20234;-75
2023/10/06 16:12:41;;;;;;;;;;;;;;;;;;5091271;28;19913;-76
2023/10/06 16:15:08;;;;;;;;;;;;;;;;;;5090834;28;19931;-76
2023/10/06 16:17:35;;;;;;;;;;;;;;;;;;5091251;28;20000;-75
2023/10/06 16:20:00;;;;;;;;;;;;;;;;;;5091184;28;19908;-75
2023/10/06 16:31:46;;;;;;;;;;;;;;;;;;5092299;27;19916;-77
2023/10/06 16:35:53;;;;;;;;;;;;;;;;;;5091516;27;19950;-75
2023/10/06 16:38:19;;;;;;;;;;;;;;;;;;5091353;28;20432;-75
2023/10/06 16:42:24;;;;;;;;;;;;;;;;;;5091708;27;20277;-75
2023/10/06 16:44:51;;;;;;;;;;;;;;;;;;5091040;28;20003;-76
2023/10/06 16:48:57;;;;;;;;;;;;;;;;;;5091594;27;19916;-75
2023/10/06 16:52:12;;;;;;;;;;;;;;;;;;5091554;27;19917;-75
2023/10/06 16:55:21;;;;;;;;;;;;;;;;;;5071172;28;19912;-76
2023/10/06 16:59:50;;;;;;;;;;;;;;;;;;5153273;27;20006;-74
2023/10/06 17:10:36;;;;;;;;;;;;;;;;;;5092147;27;19913;-76
2023/10/06 17:18:13;;;;;;;;;;;;;;;;;;5091461;27;19917;-74
2023/10/06 17:20:39;;;;;;;;;;;;;;;;;;5091413;28;19912;-75
2023/10/06 17:28:47;;;;;;;;;;;;;;;;;;5112629;27;19916;-75
2023/10/06 17:32:04;;;;;;;;;;;;;;;;;;5071201;28;19913;-75
2023/10/06 17:34:30;;;;;;;;;;;;;;;;;;5071098;28;19919;-75
2023/10/06 17:38:29;;;;;;;;;;;;;;;;;;5112507;27;19923;-77
2023/10/06 17:40:55;;;;;;;;;;;;;;;;;;5111484;28;20328;-75
2023/10/06 17:43:23;;;;;;;;;;;;;;;;;;5111259;28;19965;-73
2023/10/06 17:45:49;;;;;;;;;;;;;;;;;;5110394;28;19912;-74
2023/10/06 17:48:15;;;;;;;;;;;;;;;;;;5111040;28;19908;-75
2023/10/06 17:55:05;;;;;;;;;;;;;;;;;;5111466;27;19916;-74
2023/10/06 17:58:52;;;;;;;;;;;;;;;;;;5091476;27;19923;-76
2023/10/06 18:01:18;;;;;;;;;;;;;;;;;;5090911;28;20396;-74
2023/10/06 18:06:59;;;;;;;;;;;;;;;;;;5091476;28;20376;-75
2023/10/06 18:09:25;;;;;;;;;;;;;;;;;;5090079;28;20364;-74
2023/10/06 18:11:51;;;;;;;;;;;;;;;;;;5091394;28;19909;-74
2023/10/06 18:15:46;;;;;;;;;;;;;;;;;;5091127;27;19920;-75
2023/10/06 18:18:12;;;;;;;;;;;;;;;;;;5090040;28;20435;-76
2023/10/06 18:20:38;;;;;;;;;;;;;;;;;;5091222;28;19909;-75
2023/10/06 18:23:05;;;;;;;;;;;;;;;;;;5089567;28;19909;-75
2023/10/06 18:26:18;;;;;;;;;;;;;;;;;;5091627;27;19912;-74
2023/10/06 18:28:45;;;;;;;;;;;;;;;;;;5090895;28;19912;-75
2023/10/06 18:31:11;;;;;;;;;;;;;;;;;;5091233;28;20003;-75
2023/10/06 18:33:38;;;;;;;;;;;;;;;;;;5089959;28;20398;-74
2023/10/06 18:36:05;;;;;;;;;;;;;;;;;;5091128;28;19930;-75
2023/10/06 18:38:31;;;;;;;;;;;;;;;;;;5091224;28;19909;-75
2023/10/06 18:40:58;;;;;;;;;;;;;;;;;;5091102;28;19991;-76
2023/10/06 18:43:24;;;;;;;;;;;;;;;;;;5090723;28;19950;-76
2023/10/06 18:45:55;;;;;;;;;;;;;;;;;;5091040;28;20005;-75
2023/10/06 18:48:21;;;;;;;;;;;;;;;;;;5091053;28;20390;-75
2023/10/06 18:50:49;;;;;;;;;;;;;;;;;;5090659;28;20002;-73
2023/10/06 18:53:15;;;;;;;;;;;;;;;;;;5090822;28;19916;-75
2023/10/06 18:55:42;;;;;;;;;;;;;;;;;;5090705;28;19908;-75
2023/10/06 18:58:09;;;;;;;;;;;;;;;;;;5089176;28;19983;-75
2023/10/06 19:00:35;;;;;;;;;;;;;;;;;;5090932;28;20319;-74
2023/10/06 19:03:01;;;;;;;;;;;;;;;;;;5090812;28;19915;-75
2023/10/06 19:05:27;;;;;;;;;;;;;;;;;;5091051;28;19920;-75
2023/10/06 19:07:53;;;;;;;;;;;;;;;;;;5092940;28;19912;-75
2023/10/06 19:10:19;;;;;;;;;;;;;;;;;;5091647;28;19962;-75
2023/10/06 19:12:45;;;;;;;;;;;;;;;;;;5091269;28;19912;-75
2023/10/06 19:15:50;;;;;;;;;;;;;;;;;;5091404;27;19912;-75
2023/10/06 19:18:15;;;;;;;;;;;;;;;;;;5091030;28;19912;-75
2023/10/06 19:20:46;;;;;;;;;;;;;;;;;;5091398;28;19912;-75
2023/10/06 19:23:13;;;;;;;;;;;;;;;;;;5091499;28;19948;-75
2023/10/06 19:25:41;;;;;;;;;;;;;;;;;;5090968;28;19916;-75
2023/10/06 19:28:07;;;;;;;;;;;;;;;;;;5091524;28;19954;-76
2023/10/06 19:32:24;;;;;;;;;;;;;;;;;;5091366;27;19923;-75
2023/10/06 19:36:58;;;;;;;;;;;;;;;;;;5090339;28;20388;-75
2023/10/06 19:39:26;;;;;;;;;;;;;;;;;;5090969;28;19913;-76
2023/10/06 19:41:53;;;;;;;;;;;;;;;;;;5091265;28;19962;-76
2023/10/06 19:45:20;;;;;;;;;;;;;;;;;;5092052;27;19916;-76
2023/10/06 19:47:45;;;;;;;;;;;;;;;;;;5090867;28;20003;-76
2023/10/06 19:50:11;;;;;;;;;;;;;;;;;;5091226;28;19912;-76
2023/10/06 19:52:38;;;;;;;;;;;;;;;;;;5088766;28;19908;-76
2023/10/06 19:55:04;;;;;;;;;;;;;;;;;;5089110;28;19908;-75
2023/10/06 19:57:30;;;;;;;;;;;;;;;;;;5089316;28;19915;-76
2023/10/06 20:00:27;;;;;;;;;;;;;;;;;;5089455;27;19916;-75
2023/10/06 20:05:26;;;;;;;;;;;;;;;;;;5110089;27;19916;-75
2023/10/06 20:08:16;;;;;;;;;;;;;;;;;;5111577;27;20383;-75
2023/10/06 20:12:13;;;;;;;;;;;;;;;;;;5091542;27;19916;-75
2023/10/06 20:14:41;;;;;;;;;;;;;;;;;;5091165;28;20003;-74
2023/10/06 20:17:09;;;;;;;;;;;;;;;;;;5091821;28;19909;-75
2023/10/06 20:19:36;;;;;;;;;;;;;;;;;;5091369;28;19912;-76
2023/10/06 20:22:02;;;;;;;;;;;;;;;;;;5090936;28;19908;-76
2023/10/06 20:24:29;;;;;;;;;;;;;;;;;;5091141;28;19916;-75
2023/10/06 20:26:55;;;;;;;;;;;;;;;;;;5091033;28;19908;-75
2023/10/06 20:29:21;;;;;;;;;;;;;;;;;;5090682;28;19916;-75
2023/10/06 20:31:47;;;;;;;;;;;;;;;;;;5091128;28;19917;-75
2023/10/06 20:34:13;;;;;;;;;;;;;;;;;;5091207;28;19919;-76
2023/10/06 20:36:39;;;;;;;;;;;;;;;;;;5090684;28;19908;-75